createdAt,value
2023-01-13T00:00:15.054Z,98227.44
2023-01-13T00:02:42.082Z,98218.91
2023-01-13T00:05:09.646Z,98212.09
2023-01-13T00:07:40.442Z,98216.38
2023-01-13T00:10:10.134Z,98216.31
2023-01-13T00:12:43.909Z,98217.50
2023-01-13T00:15:11.626Z,98212.19
2023-01-13T00:17:38.918Z,98206.66
2023-01-13T00:20:06.181Z,98214.09
2023-01-13T00:22:34.476Z,98205.47
2023-01-13T00:27:29.102Z,98198.78
2023-01-13T00:29:56.940Z,98205.25
2023-01-13T00:32:23.613Z,98205.50
2023-01-13T00:34:50.251Z,98193.56
2023-01-13T00:37:16.726Z,98190.28
2023-01-13T00:39:44.393Z,98192.44
2023-01-13T00:42:29.688Z,98184.16
2023-01-13T00:44:56.293Z,98187.88
2023-01-13T00:47:23.400Z,98186.44
2023-01-13T00:49:52.814Z,98184.63
2023-01-13T00:52:19.483Z,98185.16
2023-01-13T00:54:46.434Z,98174.97
2023-01-13T00:57:13.075Z,98168.16
2023-01-13T00:59:43.202Z,98172.59
2023-01-13T01:02:20.291Z,98169.75
2023-01-13T01:04:46.760Z,98165.78
2023-01-13T01:07:19.042Z,98157.88
2023-01-13T01:09:45.452Z,98162.84
2023-01-13T01:12:12.039Z,98162.38
2023-01-13T01:14:39.001Z,98150.69
2023-01-13T01:17:05.871Z,98160.34
2023-01-13T01:19:32.382Z,98156.38
2023-01-13T01:21:58.971Z,98161.94
2023-01-13T01:24:25.513Z,98161.56
2023-01-13T01:26:51.950Z,98159.16
2023-01-13T01:29:18.721Z,98159.25
2023-01-13T01:31:45.759Z,98162.09
2023-01-13T01:34:12.682Z,98163.47
2023-01-13T01:36:39.902Z,98168.09
2023-01-13T01:39:07.004Z,98156.81
2023-01-13T01:41:35.498Z,98150.84
2023-01-13T01:44:42.677Z,98150.84
2023-01-13T01:47:18.469Z,98142.25
2023-01-13T01:49:46.631Z,98141.00
2023-01-13T01:52:29.506Z,98138.94
2023-01-13T01:55:33.822Z,98136.00
2023-01-13T02:00:39.643Z,98119.53
2023-01-13T02:05:39.615Z,98121.63
2023-01-13T02:08:08.306Z,98117.66
2023-01-13T02:10:36.180Z,98120.97
2023-01-13T02:13:07.015Z,98123.34
2023-01-13T02:15:55.165Z,98120.28
2023-01-13T02:21:28.891Z,98120.41
2023-01-13T02:24:18.152Z,98105.47
2023-01-13T02:27:29.776Z,98109.97
2023-01-13T02:30:27.846Z,98089.91
2023-01-13T02:33:18.220Z,98096.72
2023-01-13T02:35:57.458Z,98100.34
2023-01-13T02:38:32.732Z,98092.50
2023-01-13T02:41:24.395Z,98088.31
2023-01-13T02:44:08.433Z,98087.50
2023-01-13T02:49:44.548Z,98086.81
2023-01-13T02:52:22.244Z,98082.69
2023-01-13T02:54:55.343Z,98084.53
2023-01-13T02:57:24.078Z,98082.69
2023-01-13T02:59:54.237Z,98077.66
2023-01-13T03:02:22.957Z,98071.81
2023-01-13T03:04:55.419Z,98070.91
2023-01-13T03:07:59.111Z,98075.13
2023-01-13T03:10:25.518Z,98065.78
2023-01-13T03:12:57.917Z,98070.50
2023-01-13T03:15:50.666Z,98068.94
2023-01-13T03:18:58.554Z,98062.69
2023-01-13T03:21:32.753Z,98058.75
2023-01-13T03:24:05.583Z,98053.13
2023-01-13T03:26:42.295Z,98063.56
2023-01-13T03:29:17.155Z,98055.97
2023-01-13T03:32:05.937Z,98057.56
2023-01-13T03:34:45.895Z,98058.09
2023-01-13T03:37:15.215Z,98051.38
2023-01-13T03:39:47.938Z,98057.38
2023-01-13T03:42:20.954Z,98054.78
2023-01-13T03:44:53.465Z,98053.97
2023-01-13T03:47:53.895Z,98049.81
2023-01-13T03:50:25.066Z,98053.44
2023-01-13T03:53:10.454Z,98057.38
2023-01-13T03:55:44.211Z,98048.75
2023-01-13T03:58:28.686Z,98062.47
2023-01-13T04:01:04.885Z,98057.16
2023-01-13T04:03:45.006Z,98058.97
2023-01-13T04:06:30.842Z,98059.19
2023-01-13T04:09:23.895Z,98066.66
2023-01-13T04:12:07.500Z,98064.28
2023-01-13T04:14:35.984Z,98052.50
2023-01-13T04:19:29.570Z,98052.53
2023-01-13T04:21:56.527Z,98051.13
2023-01-13T04:24:23.254Z,98052.81
2023-01-13T04:26:50.546Z,98057.78
2023-01-13T04:29:19.401Z,98058.03
2023-01-13T04:31:46.085Z,98060.72
2023-01-13T04:34:13.355Z,98054.13
2023-01-13T04:36:40.155Z,98064.66
2023-01-13T04:39:06.813Z,98068.84
2023-01-13T04:41:53.339Z,98060.22
2023-01-13T04:44:23.378Z,98061.81
2023-01-13T04:46:49.932Z,98055.88
2023-01-13T04:49:16.654Z,98061.56
2023-01-13T04:51:43.330Z,98052.69
2023-01-13T04:54:11.352Z,98050.09
2023-01-13T04:56:37.955Z,98045.19
2023-01-13T04:59:04.673Z,98039.72
2023-01-13T05:01:31.863Z,98047.41
2023-01-13T05:03:58.518Z,98050.00
2023-01-13T05:06:25.309Z,98043.91
2023-01-13T05:08:51.843Z,98042.63
2023-01-13T05:11:37.514Z,98055.09
2023-01-13T05:14:22.586Z,98053.19
2023-01-13T05:19:38.117Z,98049.88
2023-01-13T05:22:23.871Z,98053.50
2023-01-13T05:25:10.963Z,98053.97
2023-01-13T05:27:37.709Z,98050.66
2023-01-13T05:30:05.460Z,98042.03
2023-01-13T05:32:32.431Z,98046.38
2023-01-13T05:34:59.080Z,98041.66
2023-01-13T05:37:26.817Z,98045.91
2023-01-13T05:40:14.553Z,98046.38
2023-01-13T05:42:59.852Z,98045.34
2023-01-13T05:45:29.636Z,98050.56
2023-01-13T05:47:57.304Z,98041.16
2023-01-13T05:50:51.265Z,98045.59
2023-01-13T05:53:18.359Z,98047.97
2023-01-13T05:55:45.242Z,98040.66
2023-01-13T05:58:14.978Z,98039.66
2023-01-13T06:03:24.877Z,98037.84
2023-01-13T06:05:59.058Z,98032.03
2023-01-13T06:08:26.078Z,98032.91
2023-01-13T06:10:56.205Z,98026.66
2023-01-13T06:13:25.575Z,98037.72
2023-01-13T06:15:56.667Z,98028.72
2023-01-13T06:18:25.457Z,98043.47
2023-01-13T06:20:55.617Z,98036.44
2023-01-13T06:23:29.165Z,98034.53
2023-01-13T06:28:39.947Z,98026.06
2023-01-13T06:31:11.673Z,98030.25
2023-01-13T06:33:50.235Z,98032.63
2023-01-13T06:36:22.563Z,98036.28
2023-01-13T06:38:55.689Z,98036.44
2023-01-13T06:41:43.217Z,98039.28
2023-01-13T06:44:13.348Z,98040.94
2023-01-13T06:46:40.122Z,98045.84
2023-01-13T06:49:10.030Z,98038.97
2023-01-13T06:51:38.418Z,98036.91
2023-01-13T06:54:05.561Z,98037.78
2023-01-13T06:56:33.138Z,98039.19
2023-01-13T07:01:32.615Z,98045.44
2023-01-13T07:06:33.567Z,98037.97
2023-01-13T07:09:13.693Z,98041.66
2023-01-13T07:14:44.826Z,98047.19
2023-01-13T07:17:14.716Z,98042.66
2023-01-13T07:19:43.657Z,98047.31
2023-01-13T07:22:13.894Z,98047.09
2023-01-13T07:24:46.979Z,98041.09
2023-01-13T07:27:13.501Z,98043.09
2023-01-13T07:29:39.990Z,98039.69
2023-01-13T07:32:07.909Z,98035.78
2023-01-13T07:34:34.383Z,98034.75
2023-01-13T07:39:28.237Z,98038.31
2023-01-13T07:42:13.298Z,98045.22
2023-01-13T07:44:39.774Z,98039.09
2023-01-13T07:47:08.418Z,98034.47
2023-01-13T07:49:34.854Z,98030.63
2023-01-13T07:54:40.658Z,98022.81
2023-01-13T07:57:11.237Z,98028.34
2023-01-13T07:59:38.588Z,98021.78
2023-01-13T08:02:06.120Z,98024.81
2023-01-13T08:04:34.195Z,98030.56
2023-01-13T08:09:31.178Z,98030.03
2023-01-13T08:12:16.497Z,98033.44
2023-01-13T08:14:43.283Z,98032.47
2023-01-13T08:17:10.325Z,98035.78
2023-01-13T08:19:36.846Z,98034.47
2023-01-13T08:24:34.920Z,98037.28
2023-01-13T08:29:27.766Z,98031.75
2023-01-13T08:31:54.430Z,98035.88
2023-01-13T08:34:20.974Z,98038.31
2023-01-13T08:36:49.680Z,98047.41
2023-01-13T08:39:16.535Z,98046.94
2023-01-13T08:41:55.881Z,98045.28
2023-01-13T08:44:27.631Z,98053.34
2023-01-13T08:46:54.463Z,98056.25
2023-01-13T08:49:22.372Z,98056.84
2023-01-13T08:51:49.683Z,98057.00
2023-01-13T08:54:19.054Z,98060.47
2023-01-13T08:56:47.020Z,98073.75
2023-01-13T08:59:15.112Z,98064.63
2023-01-13T09:01:43.263Z,98081.47
2023-01-13T09:04:19.673Z,98077.59
2023-01-13T09:06:49.813Z,98080.81
2023-01-13T09:09:17.034Z,98093.56
2023-01-13T09:12:05.859Z,98091.59
2023-01-13T09:14:34.307Z,98095.81
2023-01-13T09:19:28.777Z,98092.91
2023-01-13T09:21:56.693Z,98106.19
2023-01-13T09:24:24.124Z,98107.44
2023-01-13T09:26:51.152Z,98120.13
2023-01-13T09:29:18.906Z,98119.47
2023-01-13T09:31:46.753Z,98144.69
2023-01-13T09:34:36.135Z,98177.28
2023-01-13T09:37:03.929Z,98198.41
2023-01-13T09:39:33.950Z,98191.50
2023-01-13T09:42:57.769Z,98190.72
2023-01-13T09:45:40.448Z,98184.03
2023-01-13T09:48:28.340Z,98194.53
2023-01-13T09:50:58.589Z,98187.63
2023-01-13T09:53:34.227Z,98189.78
2023-01-13T09:58:27.965Z,98185.88
2023-01-13T10:01:06.760Z,98183.06
2023-01-13T10:03:38.762Z,98186.31
2023-01-13T10:06:24.009Z,98176.25
2023-01-13T10:08:52.019Z,98166.06
2023-01-13T10:11:40.035Z,98158.25
2023-01-13T10:14:20.595Z,98158.94
2023-01-13T10:19:36.936Z,98167.78
2023-01-13T10:22:23.311Z,98164.56
2023-01-13T10:24:55.853Z,98159.56
2023-01-13T10:27:35.228Z,98169.63
2023-01-13T10:30:34.091Z,98167.75
2023-01-13T10:33:09.273Z,98181.91
2023-01-13T10:38:41.135Z,98187.56
2023-01-13T10:41:13.721Z,98190.28
2023-01-13T10:46:13.379Z,98194.03
2023-01-13T10:48:43.071Z,98189.94
2023-01-13T10:51:26.193Z,98167.38
2023-01-13T10:53:55.047Z,98165.81
2023-01-13T10:56:23.744Z,98162.53
2023-01-13T10:59:09.798Z,98171.84
2023-01-13T11:01:37.209Z,98176.94
2023-01-13T11:04:37.537Z,98158.69
2023-01-13T11:07:16.902Z,98170.31
2023-01-13T11:09:43.592Z,98160.44
2023-01-13T11:12:31.645Z,98159.25
2023-01-13T11:17:34.917Z,98157.31
2023-01-13T11:20:19.176Z,98157.88
2023-01-13T11:22:49.051Z,98147.94
2023-01-13T11:25:23.277Z,98149.31
2023-01-13T11:27:57.245Z,98147.91
2023-01-13T11:30:55.566Z,98145.56
2023-01-13T11:33:24.753Z,98148.59
2023-01-13T11:36:05.507Z,98147.97
2023-01-13T11:38:44.430Z,98147.09
2023-01-13T11:41:33.102Z,98150.16
2023-01-13T11:44:14.889Z,98149.06
2023-01-13T11:46:42.090Z,98148.81
2023-01-13T11:49:22.561Z,98161.41
2023-01-13T11:52:11.416Z,98167.75
2023-01-13T11:54:56.530Z,98169.19
2023-01-13T11:57:43.969Z,98173.16
2023-01-13T12:00:35.136Z,98171.03
2023-01-13T12:03:17.273Z,98178.34
2023-01-13T12:06:07.916Z,98188.66
2023-01-13T12:09:10.007Z,98172.81
2023-01-13T12:12:15.878Z,98178.53
2023-01-13T12:15:10.234Z,98179.13
2023-01-13T12:17:51.209Z,98182.19
2023-01-13T12:20:46.071Z,98181.25
2023-01-13T12:23:32.330Z,98180.19
2023-01-13T12:26:08.127Z,98185.22
2023-01-13T12:28:57.243Z,98179.91
2023-01-13T12:31:25.371Z,98189.44
2023-01-13T12:34:00.443Z,98201.31
2023-01-13T12:36:27.307Z,98194.75
2023-01-13T12:39:04.161Z,98194.78
2023-01-13T12:42:11.190Z,98188.75
2023-01-13T12:44:38.312Z,98172.00
2023-01-13T12:47:25.388Z,98171.03
2023-01-13T12:49:52.921Z,98168.28
2023-01-13T12:52:20.134Z,98169.56
2023-01-13T12:54:49.895Z,98170.00
2023-01-13T12:57:22.038Z,98173.81
2023-01-13T13:00:17.401Z,98184.31
2023-01-13T13:03:13.733Z,98200.41
2023-01-13T13:05:55.386Z,98202.19
2023-01-13T13:08:54.458Z,98190.50
2023-01-13T13:11:53.911Z,98178.31
2023-01-13T13:14:39.759Z,98180.16
2023-01-13T13:17:28.568Z,98184.03
2023-01-13T13:22:26.877Z,98184.84
2023-01-13T13:24:57.264Z,98178.38
2023-01-13T13:27:46.123Z,98179.53
2023-01-13T13:30:36.255Z,98177.25
2023-01-13T13:33:15.423Z,98173.69
2023-01-13T13:35:58.306Z,98182.53
2023-01-13T13:38:59.241Z,98180.59
2023-01-13T13:41:53.629Z,98196.78
2023-01-13T13:45:09.585Z,98203.28
2023-01-13T13:47:38.789Z,98204.97
2023-01-13T13:50:15.163Z,98213.69
2023-01-13T13:52:52.038Z,98219.09
2023-01-13T13:55:25.118Z,98215.91
2023-01-13T13:57:54.576Z,98213.56
2023-01-13T14:00:32.404Z,98218.22
2023-01-13T14:03:29.264Z,98219.28
2023-01-13T14:08:46.587Z,98226.41
2023-01-13T14:11:36.933Z,98241.50
2023-01-13T14:14:07.702Z,98241.28
2023-01-13T14:16:36.426Z,98249.66
2023-01-13T14:19:03.824Z,98246.69
2023-01-13T14:22:05.369Z,98248.53
2023-01-13T14:24:39.942Z,98250.19
2023-01-13T14:27:20.462Z,98249.75
2023-01-13T14:29:54.171Z,98247.47
2023-01-13T14:32:26.326Z,98233.19
2023-01-13T14:34:55.810Z,98233.88
2023-01-13T14:37:31.073Z,98238.53
2023-01-13T14:39:58.203Z,98239.66
2023-01-13T14:42:28.153Z,98248.63
2023-01-13T14:44:56.355Z,98259.28
2023-01-13T14:47:29.896Z,98261.09
2023-01-13T14:50:31.595Z,98261.09
2023-01-13T14:53:02.000Z,98261.34
2023-01-13T14:55:30.167Z,98269.81
2023-01-13T14:58:31.078Z,98274.13
2023-01-13T15:01:39.674Z,98276.38
2023-01-13T15:04:30.212Z,98280.88
2023-01-13T15:09:28.897Z,98283.94
2023-01-13T15:11:59.024Z,98275.34
2023-01-13T15:14:33.101Z,98272.59
2023-01-13T15:19:29.601Z,98291.44
2023-01-13T15:24:38.647Z,98309.66
2023-01-13T15:27:18.930Z,98316.06
2023-01-13T15:29:49.248Z,98326.78
2023-01-13T15:32:20.996Z,98332.28
2023-01-13T15:34:48.473Z,98324.69
2023-01-13T15:37:17.213Z,98340.97
2023-01-13T15:39:44.350Z,98345.59
2023-01-13T15:42:33.825Z,98342.63
2023-01-13T15:45:19.031Z,98360.25
2023-01-13T15:47:48.939Z,98359.97
2023-01-13T15:50:18.405Z,98367.56
2023-01-13T15:52:45.251Z,98383.09
2023-01-13T15:55:12.635Z,98380.72
2023-01-13T15:57:45.843Z,98392.94
2023-01-13T16:00:20.508Z,98398.03
2023-01-13T16:02:56.032Z,98410.69
2023-01-13T16:05:26.163Z,98407.66
2023-01-13T16:07:52.947Z,98415.59
2023-01-13T16:10:27.646Z,98415.47
2023-01-13T16:15:28.490Z,98433.25
2023-01-13T16:20:29.040Z,98442.31
2023-01-13T16:22:56.122Z,98456.50
2023-01-13T16:25:27.655Z,98466.38
2023-01-13T16:27:55.510Z,98476.41
2023-01-13T16:30:26.047Z,98477.78
2023-01-13T16:32:55.291Z,98467.72
2023-01-13T16:35:22.955Z,98475.94
2023-01-13T16:37:50.928Z,98476.00
2023-01-13T16:40:34.781Z,98485.56
2023-01-13T16:43:07.023Z,98481.53
2023-01-13T16:45:34.715Z,98490.13
2023-01-13T16:48:01.868Z,98478.47
2023-01-13T16:50:41.184Z,98481.75
2023-01-13T16:53:12.324Z,98485.75
2023-01-13T16:55:40.762Z,98495.28
2023-01-13T16:58:16.929Z,98493.31
2023-01-13T17:00:46.847Z,98497.56
2023-01-13T17:03:14.690Z,98505.56
2023-01-13T17:05:46.203Z,98505.19
2023-01-13T17:08:18.069Z,98508.63
2023-01-13T17:10:50.409Z,98520.25
2023-01-13T17:13:21.181Z,98512.06
2023-01-13T17:15:48.456Z,98515.69
2023-01-13T17:18:20.291Z,98519.47
2023-01-13T17:20:49.070Z,98531.09
2023-01-13T17:23:25.230Z,98530.72
2023-01-13T17:25:54.780Z,98529.28
2023-01-13T17:28:21.744Z,98527.31
2023-01-13T17:30:53.434Z,98522.88
2023-01-13T17:33:25.593Z,98527.53
2023-01-13T17:35:54.773Z,98538.72
2023-01-13T17:38:21.517Z,98534.34
2023-01-13T17:40:49.996Z,98532.91
2023-01-13T17:43:19.139Z,98522.75
2023-01-13T17:46:27.228Z,98527.31
2023-01-13T17:48:55.024Z,98523.88
2023-01-13T17:51:28.295Z,98523.06
2023-01-13T17:54:02.020Z,98539.25
2023-01-13T17:56:28.951Z,98540.25
2023-01-13T17:58:58.779Z,98540.50
2023-01-13T18:01:33.690Z,98535.06
2023-01-13T18:04:03.934Z,98544.66
2023-01-13T18:06:30.676Z,98550.38
2023-01-13T18:08:59.969Z,98551.97
2023-01-13T18:11:27.583Z,98557.56
2023-01-13T18:13:57.668Z,98559.91
2023-01-13T18:16:29.793Z,98556.88
2023-01-13T18:19:19.848Z,98567.63
2023-01-13T18:22:06.518Z,98566.97
2023-01-13T18:24:51.476Z,98578.34
2023-01-13T18:27:23.086Z,98578.75
2023-01-13T18:29:55.141Z,98587.34
2023-01-13T18:32:23.964Z,98589.97
2023-01-13T18:35:01.650Z,98595.34
2023-01-13T18:37:32.475Z,98596.66
2023-01-13T18:39:59.496Z,98600.91
2023-01-13T18:42:56.895Z,98613.09
2023-01-13T18:45:32.843Z,98606.66
2023-01-13T18:48:03.122Z,98613.88
2023-01-13T18:50:39.743Z,98607.94
2023-01-13T18:55:49.940Z,98617.50
2023-01-13T18:58:21.921Z,98623.63
2023-01-13T19:01:01.038Z,98627.06
2023-01-13T19:03:30.651Z,98622.47
2023-01-13T19:08:33.726Z,98635.78
2023-01-13T19:13:37.813Z,98631.16
2023-01-13T19:18:34.498Z,98635.19
2023-01-13T19:21:03.698Z,98634.94
2023-01-13T19:23:34.978Z,98643.53
2023-01-13T19:28:35.088Z,98640.13
2023-01-13T19:31:03.510Z,98648.13
2023-01-13T19:33:33.350Z,98659.53
2023-01-13T19:36:01.265Z,98657.66
2023-01-13T19:38:31.721Z,98672.31
2023-01-13T19:41:01.775Z,98668.53
2023-01-13T19:43:50.776Z,98658.63
2023-01-13T19:46:17.833Z,98665.53
2023-01-13T19:48:45.299Z,98670.16
2023-01-13T19:58:28.039Z,98675.53
2023-01-13T20:00:56.780Z,98678.69
2023-01-13T20:03:31.442Z,98682.34
2023-01-13T20:06:11.898Z,98682.59
2023-01-13T20:08:39.343Z,98679.81
2023-01-13T20:11:28.342Z,98679.84
2023-01-13T20:13:57.230Z,98677.34
2023-01-13T20:16:28.266Z,98675.72
2023-01-13T20:18:59.026Z,98679.53
2023-01-13T20:21:28.525Z,98685.66
2023-01-13T20:24:00.013Z,98695.88
2023-01-13T20:26:27.794Z,98690.88
2023-01-13T20:31:22.863Z,98689.69
2023-01-13T20:33:55.825Z,98695.88
2023-01-13T20:36:33.458Z,98702.19
2023-01-13T20:39:05.162Z,98703.44
2023-01-13T20:41:53.879Z,98715.06
2023-01-13T20:44:22.567Z,98705.59
2023-01-13T20:47:23.237Z,98708.75
2023-01-13T20:49:53.035Z,98716.91
2023-01-13T20:52:20.808Z,98733.78
2023-01-13T20:54:53.422Z,98733.41
2023-01-13T20:57:24.064Z,98733.34
2023-01-13T20:59:57.608Z,98742.03
2023-01-13T21:02:26.140Z,98737.19
2023-01-13T21:04:56.037Z,98729.81
2023-01-13T21:07:26.425Z,98737.63
2023-01-13T21:09:56.335Z,98739.94
2023-01-13T21:12:42.494Z,98743.81
2023-01-13T21:15:18.318Z,98739.47
2023-01-13T21:18:05.118Z,98753.06
2023-01-13T21:20:35.073Z,98752.88
2023-01-13T21:23:11.394Z,98754.25
2023-01-13T21:25:42.183Z,98758.44
2023-01-13T21:28:15.070Z,98754.72
2023-01-13T21:30:42.739Z,98760.44
2023-01-13T21:33:17.535Z,98761.91
2023-01-13T21:38:21.864Z,98761.47
2023-01-13T21:41:07.842Z,98769.69
2023-01-13T21:43:56.236Z,98770.63
2023-01-13T21:46:42.521Z,98774.66
2023-01-13T21:49:13.078Z,98771.84
2023-01-13T21:51:40.309Z,98770.66
2023-01-13T21:54:10.511Z,98779.94
2023-01-13T21:56:37.725Z,98777.16
2023-01-13T21:59:04.697Z,98779.56
2023-01-13T22:01:33.545Z,98775.91
2023-01-13T22:04:13.877Z,98779.06
2023-01-13T22:09:38.534Z,98782.16
2023-01-13T22:14:33.752Z,98785.16
2023-01-13T22:17:02.990Z,98798.19
2023-01-13T22:19:31.456Z,98804.63
2023-01-13T22:21:58.691Z,98798.63
2023-01-13T22:24:26.359Z,98793.84
2023-01-13T22:26:57.673Z,98799.25
2023-01-13T22:29:27.606Z,98795.66
2023-01-13T22:31:58.313Z,98798.28
2023-01-13T22:34:25.562Z,98798.47
2023-01-13T22:36:52.108Z,98792.91
2023-01-13T22:39:19.117Z,98802.50
2023-01-13T22:41:46.200Z,98794.53
2023-01-13T22:44:14.268Z,98806.72
2023-01-13T22:49:07.491Z,98822.69
2023-01-13T22:51:34.442Z,98835.69
2023-01-13T22:56:28.173Z,98838.50
2023-01-13T23:01:23.980Z,98839.47
2023-01-13T23:03:51.445Z,98844.28
2023-01-13T23:06:19.493Z,98847.69
2023-01-13T23:08:48.995Z,98857.69
2023-01-13T23:11:18.988Z,98851.50
2023-01-13T23:13:46.619Z,98855.28
2023-01-13T23:16:16.867Z,98859.50
2023-01-13T23:21:16.710Z,98865.06
2023-01-13T23:26:11.384Z,98868.91
2023-01-13T23:28:39.321Z,98876.06
2023-01-13T23:31:12.189Z,98873.69
2023-01-13T23:36:16.042Z,98878.47
2023-01-13T23:38:45.204Z,98876.09
2023-01-13T23:41:15.304Z,98867.47
2023-01-13T23:43:42.410Z,98874.50
2023-01-13T23:46:13.045Z,98866.28
2023-01-13T23:48:40.242Z,98873.09
2023-01-13T23:51:11.363Z,98870.69
2023-01-13T23:53:40.650Z,98865.31
2023-01-13T23:56:11.130Z,98870.09
2023-01-13T23:58:37.783Z,98858.47
